createdAt,value
2024-03-05T00:00:19.859Z,99874.45
2024-03-05T00:03:07.721Z,99876.07
2024-03-05T00:05:35.621Z,99877.10
2024-03-05T00:08:04.206Z,99874.68
2024-03-05T00:10:33.556Z,99881.23
2024-03-05T00:13:01.860Z,99884.65
2024-03-05T00:15:29.737Z,99888.31
2024-03-05T00:17:57.770Z,99885.98
2024-03-05T00:20:25.811Z,99882.20
2024-03-05T00:22:54.015Z,99875.17
2024-03-05T00:25:21.969Z,99878.49
2024-03-05T00:27:49.906Z,99875.55
2024-03-05T00:30:19.896Z,99880.66
2024-03-05T00:32:48.992Z,99880.61
2024-03-05T00:35:17.006Z,99879.86
2024-03-05T00:37:45.171Z,99880.70
2024-03-05T00:40:13.442Z,99885.17
2024-03-05T00:42:41.379Z,99887.75
2024-03-05T00:45:10.979Z,99886.13
2024-03-05T00:47:39.173Z,99888.18
2024-03-05T00:50:08.246Z,99890.39
2024-03-05T00:52:36.280Z,99892.08
2024-03-05T00:55:07.341Z,99887.89
2024-03-05T00:57:35.848Z,99891.02
2024-03-05T01:00:04.477Z,99889.13
2024-03-05T01:02:32.890Z,99885.24
2024-03-05T01:05:00.881Z,99882.40
2024-03-05T01:07:28.915Z,99880.27
2024-03-05T01:09:56.750Z,99883.16
2024-03-05T01:12:24.627Z,99886.77
2024-03-05T01:14:52.451Z,99885.63
2024-03-05T01:17:20.548Z,99888.61
2024-03-05T01:19:48.431Z,99885.71
2024-03-05T01:22:17.073Z,99881.70
2024-03-05T01:24:44.939Z,99875.90
2024-03-05T01:27:13.047Z,99874.04
2024-03-05T01:29:43.005Z,99877.62
2024-03-05T01:32:14.123Z,99879.54
2024-03-05T01:34:44.580Z,99881.36
2024-03-05T01:37:12.354Z,99880.76
2024-03-05T01:39:40.180Z,99880.63
2024-03-05T01:42:09.622Z,99883.73
2024-03-05T01:44:37.500Z,99884.30
2024-03-05T01:47:06.125Z,99879.77
2024-03-05T01:49:35.040Z,99880.24
2024-03-05T01:52:04.577Z,99880.92
2024-03-05T01:54:33.514Z,99881.83
2024-03-05T01:57:03.819Z,99885.23
2024-03-05T01:59:31.688Z,99888.80
2024-03-05T02:01:59.765Z,99886.81
2024-03-05T02:04:28.742Z,99886.17
2024-03-05T02:06:57.769Z,99883.95
2024-03-05T02:09:25.961Z,99879.92
2024-03-05T02:11:59.169Z,99881.27
2024-03-05T02:14:28.683Z,99878.73
2024-03-05T02:16:58.902Z,99879.13
2024-03-05T02:19:27.382Z,99879.10
2024-03-05T02:22:06.960Z,99876.94
2024-03-05T02:24:34.738Z,99878.06
2024-03-05T02:27:03.736Z,99878.68
2024-03-05T02:29:33.916Z,99875.86
2024-03-05T02:32:02.811Z,99877.19
2024-03-05T02:34:30.679Z,99877.52
2024-03-05T02:36:58.924Z,99877.88
2024-03-05T02:39:28.530Z,99881.45
2024-03-05T02:41:56.345Z,99879.13
2024-03-05T02:44:24.263Z,99881.65
2024-03-05T02:46:52.379Z,99883.48
2024-03-05T02:49:21.164Z,99886.90
2024-03-05T02:51:49.228Z,99883.20
2024-03-05T02:54:17.219Z,99879.80
2024-03-05T02:56:45.133Z,99879.15
2024-03-05T02:59:13.022Z,99879.27
2024-03-05T03:01:40.911Z,99880.63
2024-03-05T03:04:08.772Z,99880.19
2024-03-05T03:06:36.659Z,99879.78
2024-03-05T03:09:04.939Z,99878.78
2024-03-05T03:11:34.261Z,99878.66
2024-03-05T03:14:02.168Z,99877.21
2024-03-05T03:16:30.088Z,99881.16
2024-03-05T03:18:59.535Z,99879.25
2024-03-05T03:21:27.504Z,99878.09
2024-03-05T03:23:55.840Z,99878.02
2024-03-05T03:26:24.903Z,99878.83
2024-03-05T03:28:53.555Z,99879.59
2024-03-05T03:31:23.246Z,99877.36
2024-03-05T03:33:51.152Z,99876.21
2024-03-05T03:36:25.573Z,99880.50
2024-03-05T03:38:53.565Z,99881.61
2024-03-05T03:41:21.299Z,99883.02
2024-03-05T03:43:50.047Z,99881.30
2024-03-05T03:46:17.925Z,99874.64
2024-03-05T03:48:45.803Z,99875.39
2024-03-05T03:51:14.287Z,99873.95
2024-03-05T03:53:45.109Z,99870.33
2024-03-05T03:56:13.088Z,99867.52
2024-03-05T03:58:42.635Z,99864.70
2024-03-05T04:01:10.555Z,99863.18
2024-03-05T04:03:38.368Z,99863.88
2024-03-05T04:06:06.264Z,99864.52
2024-03-05T04:08:34.936Z,99868.11
2024-03-05T04:11:03.049Z,99868.59
2024-03-05T04:13:31.061Z,99864.55
2024-03-05T04:16:00.394Z,99862.33
2024-03-05T04:18:28.319Z,99864.08
2024-03-05T04:20:56.671Z,99871.25
2024-03-05T04:23:24.715Z,99878.16
2024-03-05T04:25:59.220Z,99881.27
2024-03-05T04:28:28.226Z,99884.60
2024-03-05T04:30:58.461Z,99886.37
2024-03-05T04:33:29.489Z,99892.52
2024-03-05T04:35:57.469Z,99892.42
2024-03-05T04:38:27.393Z,99891.58
2024-03-05T04:40:55.270Z,99893.27
2024-03-05T04:43:23.176Z,99894.14
2024-03-05T04:45:51.022Z,99894.69
2024-03-05T04:48:18.855Z,99894.08
2024-03-05T04:50:47.340Z,99895.35
2024-03-05T04:53:15.618Z,99898.05
2024-03-05T04:55:43.962Z,99899.20
2024-03-05T04:58:11.843Z,99903.02
2024-03-05T05:00:39.630Z,99898.39
2024-03-05T05:03:07.546Z,99900.27
2024-03-05T05:05:35.596Z,99900.32
2024-03-05T05:08:05.260Z,99900.42
2024-03-05T05:10:33.981Z,99900.05
2024-03-05T05:13:01.962Z,99895.05
2024-03-05T05:15:31.166Z,99897.16
2024-03-05T05:17:59.510Z,99906.41
2024-03-05T05:20:28.598Z,99909.83
2024-03-05T05:22:56.603Z,99907.02
2024-03-05T05:25:25.094Z,99909.36
2024-03-05T05:27:53.231Z,99911.16
2024-03-05T05:30:22.854Z,99913.80
2024-03-05T05:32:51.281Z,99914.73
2024-03-05T05:35:20.247Z,99914.51
2024-03-05T05:37:48.720Z,99919.04
2024-03-05T05:40:21.470Z,99920.12
2024-03-05T05:42:50.944Z,99920.26
2024-03-05T05:45:20.031Z,99922.98
2024-03-05T05:47:53.307Z,99925.85
2024-03-05T05:50:23.867Z,99924.95
2024-03-05T05:52:54.512Z,99924.04
2024-03-05T05:55:26.714Z,99926.66
2024-03-05T05:57:56.631Z,99925.30
2024-03-05T06:00:40.246Z,99925.42
2024-03-05T06:03:09.236Z,99921.81
2024-03-05T06:05:39.358Z,99924.20
2024-03-05T06:08:14.928Z,99924.61
2024-03-05T06:10:47.434Z,99929.84
2024-03-05T06:13:15.537Z,99934.89
2024-03-05T06:15:44.474Z,99938.10
2024-03-05T06:18:12.423Z,99939.92
2024-03-05T06:20:40.218Z,99939.50
2024-03-05T06:23:08.217Z,99940.47
2024-03-05T06:25:36.176Z,99944.14
2024-03-05T06:28:04.719Z,99944.97
2024-03-05T06:30:32.533Z,99944.91
2024-03-05T06:33:00.428Z,99949.31
2024-03-05T06:35:30.543Z,99947.46
2024-03-05T06:37:59.587Z,99949.48
2024-03-05T06:40:27.673Z,99952.10
2024-03-05T06:43:05.598Z,99953.11
2024-03-05T06:45:38.020Z,99956.80
2024-03-05T06:50:42.997Z,99959.98
2024-03-05T06:53:31.417Z,99957.96
2024-03-05T06:56:18.318Z,99956.98
2024-03-05T06:58:49.152Z,99961.98
2024-03-05T07:01:21.357Z,99964.81
2024-03-05T07:03:50.166Z,99971.62
2024-03-05T07:06:20.313Z,99977.67
2024-03-05T07:08:49.946Z,99980.08
2024-03-05T07:11:19.085Z,99989.11
2024-03-05T07:13:48.736Z,99988.63
2024-03-05T07:16:18.766Z,99986.73
2024-03-05T07:18:51.555Z,99984.95
2024-03-05T07:21:21.808Z,99979.88
2024-03-05T07:23:50.356Z,99983.00
2024-03-05T07:26:19.088Z,99986.35
2024-03-05T07:28:47.493Z,99985.37
2024-03-05T07:31:17.392Z,99984.21
2024-03-05T07:33:48.810Z,99982.17
2024-03-05T07:36:19.435Z,99985.83
2024-03-05T07:38:47.548Z,99980.91
2024-03-05T07:41:22.972Z,99975.23
2024-03-05T07:43:57.874Z,99974.39
2024-03-05T07:46:26.030Z,99973.59
2024-03-05T07:48:53.980Z,99974.03
2024-03-05T07:51:25.173Z,99972.60
2024-03-05T07:53:57.458Z,99970.37
2024-03-05T07:56:25.527Z,99960.77
2024-03-05T07:58:53.450Z,99966.16
2024-03-05T08:01:21.396Z,99980.83
2024-03-05T08:03:49.426Z,99992.23
2024-03-05T08:06:17.323Z,100002.61
2024-03-05T08:08:45.354Z,100009.98
2024-03-05T08:11:13.582Z,100011.63
2024-03-05T08:13:41.843Z,100013.63
2024-03-05T08:16:11.205Z,100012.63
2024-03-05T08:18:40.739Z,100017.99
2024-03-05T08:21:08.652Z,100019.45
2024-03-05T08:23:36.898Z,100021.85
2024-03-05T08:26:06.524Z,100021.63
2024-03-05T08:28:34.537Z,100022.30
2024-03-05T08:31:02.560Z,100029.30
2024-03-05T08:33:32.373Z,100032.91
2024-03-05T08:36:00.285Z,100034.20
2024-03-05T08:38:28.370Z,100035.08
2024-03-05T08:40:56.488Z,100033.77
2024-03-05T08:43:24.486Z,100035.13
2024-03-05T08:45:53.142Z,100035.34
2024-03-05T08:48:21.122Z,100031.51
2024-03-05T08:50:49.085Z,100033.64
2024-03-05T08:53:17.054Z,100034.98
2024-03-05T08:55:44.986Z,100039.76
2024-03-05T08:58:12.838Z,100039.86
2024-03-05T09:00:43.402Z,100036.03
2024-03-05T09:03:15.290Z,100034.61
2024-03-05T09:05:46.516Z,100030.18
2024-03-05T09:08:16.071Z,100031.60
2024-03-05T09:10:46.035Z,100033.14
2024-03-05T09:13:14.106Z,100037.13
2024-03-05T09:15:44.278Z,100044.73
2024-03-05T09:18:15.805Z,100046.33
2024-03-05T09:20:44.631Z,100050.33
2024-03-05T09:23:13.232Z,100050.86
2024-03-05T09:25:43.583Z,100052.24
2024-03-05T09:28:12.243Z,100052.85
2024-03-05T09:30:41.108Z,100054.51
2024-03-05T09:33:11.516Z,100048.48
2024-03-05T09:35:41.598Z,100052.39
2024-03-05T09:38:10.056Z,100056.59
2024-03-05T09:40:40.208Z,100061.61
2024-03-05T09:43:08.893Z,100066.52
2024-03-05T09:45:42.690Z,100067.65
2024-03-05T09:48:11.443Z,100069.84
2024-03-05T09:50:40.220Z,100073.45
2024-03-05T09:53:08.514Z,100076.37
2024-03-05T09:55:36.541Z,100079.81
2024-03-05T09:58:15.446Z,100082.08
2024-03-05T10:00:43.412Z,100085.51
2024-03-05T10:03:11.270Z,100087.75
2024-03-05T10:05:41.519Z,100090.70
2024-03-05T10:08:12.646Z,100093.40
2024-03-05T10:10:41.250Z,100097.35
2024-03-05T10:13:09.201Z,100103.41
2024-03-05T10:15:39.709Z,100105.86
2024-03-05T10:18:08.850Z,100106.81
2024-03-05T10:20:40.207Z,100108.99
2024-03-05T10:23:10.751Z,100107.08
2024-03-05T10:25:41.459Z,100110.94
2024-03-05T10:28:10.195Z,100110.61
2024-03-05T10:30:39.245Z,100112.13
2024-03-05T10:33:11.685Z,100113.84
2024-03-05T10:35:43.119Z,100114.31
2024-03-05T10:38:15.509Z,100111.67
2024-03-05T10:40:46.422Z,100109.94
2024-03-05T10:43:17.982Z,100112.64
2024-03-05T10:45:47.607Z,100112.31
2024-03-05T10:48:19.435Z,100115.48
2024-03-05T10:50:50.258Z,100117.29
2024-03-05T10:53:19.700Z,100113.36
2024-03-05T10:55:52.798Z,100115.19
2024-03-05T10:58:41.038Z,100120.33
2024-03-05T11:01:10.921Z,100122.55
2024-03-05T11:03:40.764Z,100124.80
2024-03-05T11:06:10.359Z,100127.11
2024-03-05T11:08:38.647Z,100131.03
2024-03-05T11:11:15.466Z,100129.69
2024-03-05T11:13:43.864Z,100127.02
2024-03-05T11:16:12.195Z,100126.27
2024-03-05T11:18:41.183Z,100123.27
2024-03-05T11:21:11.879Z,100126.05
2024-03-05T11:23:53.571Z,100125.00
2024-03-05T11:26:27.368Z,100126.62
2024-03-05T11:29:29.870Z,100127.34
2024-03-05T11:31:59.687Z,100125.45
2024-03-05T11:34:29.515Z,100128.35
2024-03-05T11:37:13.054Z,100130.42
2024-03-05T11:39:44.011Z,100133.58
2024-03-05T11:42:22.260Z,100139.91
2024-03-05T11:44:50.981Z,100141.16
2024-03-05T11:47:24.106Z,100145.08
2024-03-05T11:49:52.406Z,100147.86
2024-03-05T11:52:20.552Z,100142.05
2024-03-05T11:54:59.678Z,100144.04
2024-03-05T11:57:28.849Z,100144.11
2024-03-05T11:59:57.071Z,100147.02
2024-03-05T12:02:25.387Z,100149.75
2024-03-05T12:04:54.775Z,100147.67
2024-03-05T12:07:23.455Z,100148.02
2024-03-05T12:09:57.201Z,100155.77
2024-03-05T12:12:25.347Z,100158.04
2024-03-05T12:14:55.573Z,100165.70
2024-03-05T12:17:25.807Z,100173.25
2024-03-05T12:20:09.750Z,100176.19
2024-03-05T12:22:41.178Z,100179.23
2024-03-05T12:25:09.814Z,100175.01
2024-03-05T12:27:39.559Z,100175.06
2024-03-05T12:30:08.441Z,100174.40
2024-03-05T12:32:37.947Z,100172.51
2024-03-05T12:35:07.247Z,100174.30
2024-03-05T12:37:37.255Z,100171.77
2024-03-05T12:40:09.130Z,100174.53
2024-03-05T12:42:37.191Z,100173.95
2024-03-05T12:45:09.655Z,100172.54
2024-03-05T12:47:39.175Z,100168.79
2024-03-05T12:50:10.009Z,100164.75
2024-03-05T12:52:38.681Z,100166.30
2024-03-05T12:55:11.143Z,100168.00
2024-03-05T12:57:40.055Z,100171.02
2024-03-05T13:00:13.961Z,100179.80
2024-03-05T13:02:45.139Z,100183.52
2024-03-05T13:05:13.068Z,100185.48
2024-03-05T13:07:41.116Z,100184.06
2024-03-05T13:10:12.272Z,100188.42
2024-03-05T13:12:43.126Z,100194.10
2024-03-05T13:15:11.140Z,100201.33
2024-03-05T13:17:39.048Z,100204.02
2024-03-05T13:20:19.749Z,100207.21
2024-03-05T13:22:49.253Z,100213.69
2024-03-05T13:25:17.140Z,100216.95
2024-03-05T13:27:49.485Z,100218.91
2024-03-05T13:30:19.256Z,100216.02
2024-03-05T13:32:51.952Z,100221.67
2024-03-05T13:35:20.386Z,100225.27
2024-03-05T13:37:49.106Z,100230.70
2024-03-05T13:40:20.713Z,100235.55
2024-03-05T13:42:49.675Z,100235.55
2024-03-05T13:45:19.384Z,100239.23
2024-03-05T13:47:47.822Z,100240.83
2024-03-05T13:50:18.467Z,100240.88
2024-03-05T13:52:49.474Z,100239.98
2024-03-05T13:55:18.054Z,100241.13
2024-03-05T13:57:48.147Z,100240.63
2024-03-05T14:00:21.343Z,100237.30
2024-03-05T14:02:49.952Z,100239.95
2024-03-05T14:05:19.272Z,100238.60
2024-03-05T14:07:48.607Z,100240.17
2024-03-05T14:10:16.908Z,100242.20
2024-03-05T14:12:50.626Z,100239.92
2024-03-05T14:15:22.359Z,100238.48
2024-03-05T14:17:52.414Z,100236.57
2024-03-05T14:20:26.018Z,100241.14
2024-03-05T14:22:55.226Z,100248.86
2024-03-05T14:25:24.219Z,100250.90
2024-03-05T14:27:52.281Z,100251.90
2024-03-05T14:30:21.010Z,100253.16
2024-03-05T14:32:49.653Z,100252.55
2024-03-05T14:35:19.352Z,100258.15
2024-03-05T14:37:47.873Z,100261.36
2024-03-05T14:40:16.602Z,100263.00
2024-03-05T14:42:45.871Z,100261.40
2024-03-05T14:45:17.098Z,100265.25
2024-03-05T14:47:49.588Z,100266.95
2024-03-05T14:50:19.416Z,100272.91
2024-03-05T14:52:47.476Z,100275.58
2024-03-05T14:55:15.669Z,100278.45
2024-03-05T14:57:46.076Z,100283.36
2024-03-05T15:00:14.954Z,100284.86
2024-03-05T15:02:44.429Z,100289.10
2024-03-05T15:05:13.712Z,100291.97
2024-03-05T15:07:43.008Z,100293.98
2024-03-05T15:10:16.169Z,100294.28
2024-03-05T15:12:46.711Z,100295.52
2024-03-05T15:15:15.727Z,100297.02
2024-03-05T15:17:44.231Z,100298.35
2024-03-05T15:20:15.324Z,100305.15
2024-03-05T15:22:45.327Z,100304.23
2024-03-05T15:25:15.251Z,100311.45
2024-03-05T15:27:45.855Z,100313.73
2024-03-05T15:30:17.164Z,100315.12
2024-03-05T15:32:51.771Z,100317.48
2024-03-05T15:35:21.829Z,100322.02
2024-03-05T15:37:52.332Z,100321.38
2024-03-05T15:40:22.028Z,100325.43
2024-03-05T15:42:55.371Z,100328.83
2024-03-05T15:45:25.450Z,100329.86
2024-03-05T15:47:54.245Z,100336.73
2024-03-05T15:50:24.325Z,100337.14
2024-03-05T15:52:57.872Z,100335.33
2024-03-05T15:55:31.720Z,100341.77
2024-03-05T15:58:00.095Z,100344.34
2024-03-05T16:00:36.683Z,100346.45
2024-03-05T16:03:10.633Z,100350.77
2024-03-05T16:05:51.803Z,100354.64
2024-03-05T16:08:29.221Z,100352.46
2024-03-05T16:10:57.359Z,100358.28
2024-03-05T16:13:27.915Z,100362.16
2024-03-05T16:15:56.979Z,100365.80
2024-03-05T16:18:25.675Z,100366.23
2024-03-05T16:20:54.182Z,100366.98
2024-03-05T16:23:22.635Z,100370.23
2024-03-05T16:25:52.872Z,100373.45
2024-03-05T16:28:21.929Z,100374.16
2024-03-05T16:30:50.001Z,100371.66
2024-03-05T16:33:18.284Z,100374.30
2024-03-05T16:35:48.200Z,100378.36
2024-03-05T16:38:16.340Z,100382.82
2024-03-05T16:40:44.805Z,100383.47
2024-03-05T16:43:15.762Z,100384.23
2024-03-05T16:45:43.849Z,100388.80
2024-03-05T16:48:12.024Z,100394.52
2024-03-05T16:50:44.814Z,100402.86
2024-03-05T16:53:12.775Z,100403.77
2024-03-05T16:55:43.058Z,100408.30
2024-03-05T16:58:15.104Z,100407.39
2024-03-05T17:00:56.518Z,100412.16
2024-03-05T17:03:29.901Z,100417.02
2024-03-05T17:05:58.626Z,100422.41
2024-03-05T17:08:26.644Z,100419.67
2024-03-05T17:10:55.801Z,100423.42
2024-03-05T17:13:28.450Z,100427.29
2024-03-05T17:16:01.562Z,100433.27
2024-03-05T17:18:32.415Z,100435.88
2024-03-05T17:21:00.905Z,100438.20
2024-03-05T17:23:30.727Z,100436.70
2024-03-05T17:26:00.163Z,100438.42
2024-03-05T17:28:28.853Z,100437.27
2024-03-05T17:30:58.145Z,100439.19
2024-03-05T17:33:26.528Z,100439.40
2024-03-05T17:35:57.959Z,100436.23
2024-03-05T17:38:30.356Z,100438.98
2024-03-05T17:41:02.139Z,100441.05
2024-03-05T17:43:31.743Z,100439.32
2024-03-05T17:46:00.422Z,100437.23
2024-03-05T17:48:29.248Z,100439.61
2024-03-05T17:50:57.492Z,100446.85
2024-03-05T17:53:26.045Z,100448.84
2024-03-05T17:55:54.900Z,100450.32
2024-03-05T17:58:23.112Z,100450.05
2024-03-05T18:00:52.343Z,100451.54
2024-03-05T18:03:23.550Z,100451.84
2024-03-05T18:05:53.998Z,100455.17
2024-03-05T18:08:22.615Z,100460.00
2024-03-05T18:10:51.037Z,100458.73
2024-03-05T18:13:20.171Z,100461.57
2024-03-05T18:15:50.062Z,100463.95
2024-03-05T18:18:19.944Z,100462.77
2024-03-05T18:20:48.388Z,100464.70
2024-03-05T18:23:16.980Z,100466.73
2024-03-05T18:25:47.504Z,100466.27
2024-03-05T18:28:21.488Z,100465.77
2024-03-05T18:30:50.932Z,100464.77
2024-03-05T18:33:19.643Z,100467.59
2024-03-05T18:35:47.956Z,100471.31
2024-03-05T18:38:24.706Z,100471.94
2024-03-05T18:41:00.740Z,100473.97
2024-03-05T18:43:30.817Z,100481.39
2024-03-05T18:46:00.868Z,100486.80
2024-03-05T18:48:29.345Z,100494.38
2024-03-05T18:50:58.172Z,100499.63
2024-03-05T18:53:35.916Z,100502.30
2024-03-05T18:56:13.025Z,100504.50
2024-03-05T18:58:42.514Z,100501.98
2024-03-05T19:01:11.629Z,100507.98
2024-03-05T19:03:40.320Z,100510.53
2024-03-05T19:06:08.763Z,100507.31
2024-03-05T19:08:39.469Z,100507.52
2024-03-05T19:11:10.576Z,100505.58
2024-03-05T19:13:39.299Z,100506.58
2024-03-05T19:16:08.333Z,100504.34
2024-03-05T19:18:38.295Z,100507.71
2024-03-05T19:21:06.986Z,100513.23
2024-03-05T19:23:35.060Z,100518.89
2024-03-05T19:26:03.777Z,100518.77
2024-03-05T19:28:35.482Z,100520.79
2024-03-05T19:31:05.559Z,100518.89
2024-03-05T19:33:34.560Z,100517.16
2024-03-05T19:36:04.697Z,100511.68
2024-03-05T19:38:33.097Z,100514.04
2024-03-05T19:41:03.429Z,100518.68
2024-03-05T19:43:36.053Z,100518.00
2024-03-05T19:46:05.613Z,100520.60
2024-03-05T19:48:34.389Z,100525.79
2024-03-05T19:51:03.197Z,100527.58
2024-03-05T19:53:31.199Z,100530.55
2024-03-05T19:55:59.182Z,100531.16
2024-03-05T19:58:27.189Z,100530.70
2024-03-05T20:00:55.683Z,100536.80
2024-03-05T20:03:23.688Z,100534.38
2024-03-05T20:05:52.198Z,100531.15
2024-03-05T20:08:20.373Z,100529.37
2024-03-05T20:10:48.677Z,100530.81
2024-03-05T20:13:17.102Z,100525.36
2024-03-05T20:15:45.994Z,100527.90
2024-03-05T20:18:14.354Z,100526.11
2024-03-05T20:20:42.871Z,100522.73
2024-03-05T20:23:11.173Z,100515.61
2024-03-05T20:25:39.228Z,100515.70
2024-03-05T20:28:11.371Z,100516.61
2024-03-05T20:30:40.391Z,100515.69
2024-03-05T20:33:12.426Z,100514.83
2024-03-05T20:35:41.395Z,100513.17
2024-03-05T20:38:09.304Z,100512.49
2024-03-05T20:40:37.360Z,100514.17
2024-03-05T20:43:07.426Z,100515.66
2024-03-05T20:45:37.777Z,100518.40
2024-03-05T20:48:06.852Z,100521.48
2024-03-05T20:50:34.858Z,100521.46
2024-03-05T20:53:02.856Z,100522.33
2024-03-05T20:55:30.880Z,100524.11
2024-03-05T20:57:59.306Z,100523.17
2024-03-05T21:00:28.008Z,100519.94
2024-03-05T21:02:57.146Z,100521.18
2024-03-05T21:05:25.525Z,100518.72
2024-03-05T21:07:56.306Z,100519.00
2024-03-05T21:10:24.899Z,100518.85
2024-03-05T21:12:53.209Z,100513.55
2024-03-05T21:15:21.676Z,100510.67
2024-03-05T21:17:49.715Z,100510.33
2024-03-05T21:20:17.855Z,100506.92
2024-03-05T21:22:46.195Z,100508.43
2024-03-05T21:25:14.101Z,100511.41
2024-03-05T21:27:42.992Z,100513.30
2024-03-05T21:30:13.152Z,100516.61
2024-03-05T21:32:44.441Z,100522.02
2024-03-05T21:35:12.621Z,100519.45
2024-03-05T21:37:40.713Z,100517.48
2024-03-05T21:40:13.533Z,100521.08
2024-03-05T21:42:43.096Z,100517.42
2024-03-05T21:45:12.927Z,100517.04
2024-03-05T21:47:42.024Z,100516.94
2024-03-05T21:50:11.441Z,100518.69
2024-03-05T21:52:40.106Z,100520.34
2024-03-05T21:55:08.558Z,100519.06
2024-03-05T21:57:41.111Z,100516.45
2024-03-05T22:00:12.464Z,100516.08
2024-03-05T22:02:43.637Z,100522.69
2024-03-05T22:05:12.526Z,100525.23
2024-03-05T22:07:40.776Z,100525.98
2024-03-05T22:10:09.803Z,100523.60
2024-03-05T22:12:41.788Z,100528.20
2024-03-05T22:15:11.115Z,100527.77
2024-03-05T22:17:39.691Z,100533.27
2024-03-05T22:20:10.488Z,100534.13
2024-03-05T22:22:40.199Z,100533.83
2024-03-05T22:25:08.558Z,100535.15
2024-03-05T22:27:36.670Z,100538.01
2024-03-05T22:30:08.891Z,100536.70
2024-03-05T22:32:37.590Z,100539.80
2024-03-05T22:35:11.013Z,100544.54
2024-03-05T22:37:42.277Z,100546.05
2024-03-05T22:40:13.291Z,100550.66
2024-03-05T22:42:41.220Z,100549.58
2024-03-05T22:45:11.474Z,100552.14
2024-03-05T22:47:39.585Z,100544.88
2024-03-05T22:50:10.711Z,100539.55
2024-03-05T22:52:42.118Z,100540.45
2024-03-05T22:55:10.478Z,100537.77
2024-03-05T22:57:38.417Z,100531.06
2024-03-05T23:00:24.138Z,100534.20
2024-03-05T23:02:53.101Z,100539.16
2024-03-05T23:05:21.757Z,100541.80
2024-03-05T23:07:49.866Z,100544.05
2024-03-05T23:10:18.009Z,100542.60
2024-03-05T23:12:46.159Z,100544.63
2024-03-05T23:15:16.680Z,100547.30
2024-03-05T23:17:45.079Z,100545.19
2024-03-05T23:20:13.210Z,100547.86
2024-03-05T23:22:41.211Z,100550.00
2024-03-05T23:25:13.498Z,100550.39
2024-03-05T23:27:43.726Z,100547.44
2024-03-05T23:30:13.126Z,100552.06
2024-03-05T23:32:41.001Z,100553.66
2024-03-05T23:35:09.689Z,100557.52
2024-03-05T23:37:37.688Z,100558.67
2024-03-05T23:40:07.328Z,100557.08
2024-03-05T23:42:35.188Z,100557.20
2024-03-05T23:45:07.082Z,100558.94
2024-03-05T23:47:35.110Z,100555.02
2024-03-05T23:50:03.506Z,100553.63
2024-03-05T23:52:33.532Z,100555.57
2024-03-05T23:55:02.847Z,100555.46
2024-03-05T23:57:31.213Z,100555.20
2024-03-05T23:59:59.427Z,100554.72
